createdAt,value
2022-09-07T00:00:27.891Z,77.07
2022-09-07T00:01:29.514Z,76.82
2022-09-07T00:02:31.175Z,76.30
2022-09-07T00:03:33.191Z,75.81
2022-09-07T00:04:35.042Z,75.43
2022-09-07T00:05:44.019Z,75.56
2022-09-07T00:06:45.629Z,75.18
2022-09-07T00:07:47.370Z,76.07
2022-09-07T00:08:49.126Z,76.82
2022-09-07T00:09:51.545Z,78.36
2022-09-07T00:11:02.139Z,78.99
2022-09-07T00:12:04.068Z,78.16
2022-09-07T00:13:07.100Z,76.94
2022-09-07T00:14:08.737Z,77.59
2022-09-07T00:15:12.771Z,77.33
2022-09-07T00:16:17.784Z,76.92
2022-09-07T00:17:19.550Z,76.87
2022-09-07T00:18:21.464Z,77.04
2022-09-07T00:20:42.156Z,76.05
2022-09-07T00:21:43.886Z,75.95
2022-09-07T00:22:46.270Z,75.44
2022-09-07T00:23:49.086Z,75.63
2022-09-07T00:24:50.900Z,75.17
2022-09-07T00:25:54.240Z,75.11
2022-09-07T00:26:56.680Z,75.19
2022-09-07T00:27:58.959Z,74.92
2022-09-07T00:29:02.719Z,74.89
2022-09-07T00:30:05.715Z,74.64
2022-09-07T00:31:21.984Z,74.21
2022-09-07T00:32:23.751Z,74.31
2022-09-07T00:33:26.316Z,74.53
2022-09-07T00:34:27.894Z,74.43
2022-09-07T00:35:29.496Z,74.52
2022-09-07T00:36:31.379Z,74.28
2022-09-07T00:37:33.064Z,74.00
2022-09-07T00:38:35.302Z,73.96
2022-09-07T00:39:37.617Z,73.76
2022-09-07T00:40:39.467Z,74.02
2022-09-07T00:41:41.046Z,74.09
2022-09-07T00:42:42.718Z,74.65
2022-09-07T00:43:47.230Z,75.13
2022-09-07T00:45:00.705Z,75.67
2022-09-07T00:46:05.451Z,75.63
2022-09-07T00:47:13.988Z,76.03
2022-09-07T00:48:19.364Z,75.41
2022-09-07T00:49:22.782Z,75.50
2022-09-07T00:50:27.043Z,75.46
2022-09-07T00:51:47.854Z,75.32
2022-09-07T00:53:02.598Z,75.40
2022-09-07T00:54:08.755Z,75.30
2022-09-07T00:55:14.447Z,75.26
2022-09-07T00:56:16.075Z,76.41
2022-09-07T00:57:17.893Z,76.99
2022-09-07T00:58:22.072Z,78.09
2022-09-07T00:59:29.363Z,77.99
2022-09-07T01:00:31.645Z,77.21
2022-09-07T01:01:34.290Z,76.51
2022-09-07T01:02:36.140Z,75.07
2022-09-07T01:03:44.765Z,74.63
2022-09-07T01:04:50.395Z,74.38
2022-09-07T01:06:05.786Z,75.58
2022-09-07T01:07:08.820Z,75.46
2022-09-07T01:08:13.210Z,75.21
2022-09-07T01:09:18.400Z,75.79
2022-09-07T01:10:20.777Z,76.21
2022-09-07T01:11:23.380Z,76.52
2022-09-07T01:12:25.012Z,76.76
2022-09-07T01:13:27.372Z,76.87
2022-09-07T01:14:34.731Z,77.88
2022-09-07T01:16:08.741Z,78.26
2022-09-07T01:17:49.909Z,78.73
2022-09-07T01:19:14.493Z,79.30
2022-09-07T01:20:33.232Z,80.07
2022-09-07T01:21:34.815Z,80.37
2022-09-07T01:22:58.019Z,80.29
2022-09-07T01:24:14.725Z,79.17
2022-09-07T01:25:32.413Z,78.87
2022-09-07T01:26:55.668Z,78.40
2022-09-07T01:28:23.360Z,78.25
2022-09-07T01:29:58.877Z,78.34
2022-09-07T01:31:35.108Z,78.25
2022-09-07T01:32:42.737Z,78.04
2022-09-07T01:34:02.871Z,78.02
2022-09-07T01:35:10.243Z,77.71
2022-09-07T01:36:20.410Z,77.27
2022-09-07T01:37:42.941Z,77.89
2022-09-07T01:38:53.163Z,77.56
2022-09-07T01:40:08.061Z,77.60
2022-09-07T01:41:17.786Z,77.64
2022-09-07T01:42:23.748Z,77.64
2022-09-07T01:43:46.056Z,77.59
2022-09-07T01:44:52.715Z,76.95
2022-09-07T01:45:56.773Z,77.77
2022-09-07T01:47:25.777Z,78.78
2022-09-07T01:48:27.565Z,79.30
2022-09-07T01:49:48.333Z,79.49
2022-09-07T01:50:56.879Z,78.66
2022-09-07T01:52:15.180Z,78.60
2022-09-07T01:53:35.493Z,79.04
2022-09-07T01:54:49.382Z,78.44
2022-09-07T01:56:06.509Z,77.11
2022-09-07T01:57:14.732Z,76.22
2022-09-07T01:58:25.093Z,76.60
2022-09-07T01:59:29.726Z,77.32
2022-09-07T02:00:34.586Z,77.21
2022-09-07T02:01:46.848Z,76.74
2022-09-07T02:03:04.813Z,76.71
2022-09-07T02:04:21.553Z,76.77
2022-09-07T02:05:36.616Z,76.45
2022-09-07T02:06:49.780Z,76.90
2022-09-07T02:08:03.159Z,76.59
2022-09-07T02:09:11.241Z,76.93
2022-09-07T02:10:19.223Z,76.57
2022-09-07T02:11:27.225Z,77.38
2022-09-07T02:12:38.753Z,77.71
2022-09-07T02:13:54.348Z,77.78
2022-09-07T02:15:02.862Z,78.85
2022-09-07T02:16:29.770Z,79.11
2022-09-07T02:17:34.214Z,79.55
2022-09-07T02:18:46.710Z,80.36
2022-09-07T02:19:55.815Z,81.75
2022-09-07T02:20:59.876Z,81.80
2022-09-07T02:22:06.950Z,81.63
2022-09-07T02:23:19.391Z,81.64
2022-09-07T02:24:32.711Z,81.09
2022-09-07T02:25:40.643Z,81.23
2022-09-07T02:26:48.137Z,80.85
2022-09-07T02:28:15.427Z,79.71
2022-09-07T02:29:17.014Z,79.39
2022-09-07T02:30:19.393Z,79.13
2022-09-07T02:31:21.380Z,79.45
2022-09-07T02:32:23.106Z,79.72
2022-09-07T02:33:24.888Z,79.72
2022-09-07T02:34:26.739Z,79.97
2022-09-07T02:35:28.540Z,79.66
2022-09-07T02:36:36.619Z,79.61
2022-09-07T02:37:39.523Z,79.97
2022-09-07T02:38:41.393Z,79.90
2022-09-07T02:39:43.035Z,79.89
2022-09-07T02:40:50.706Z,80.10
2022-09-07T02:41:52.439Z,79.54
2022-09-07T02:42:54.427Z,78.83
2022-09-07T02:43:56.978Z,78.09
2022-09-07T02:44:59.047Z,77.74
2022-09-07T02:46:19.186Z,77.33
2022-09-07T02:47:32.134Z,76.84
2022-09-07T02:48:58.156Z,76.54
2022-09-07T02:49:59.711Z,76.32
2022-09-07T02:51:10.127Z,75.94
2022-09-07T02:52:36.360Z,75.95
2022-09-07T02:54:02.744Z,75.82
2022-09-07T02:55:19.274Z,75.83
2022-09-07T02:56:41.012Z,76.27
2022-09-07T02:58:08.400Z,75.63
2022-09-07T02:59:28.688Z,76.35
2022-09-07T03:00:37.909Z,75.92
2022-09-07T03:01:57.596Z,76.55
2022-09-07T03:03:17.181Z,76.59
2022-09-07T03:04:43.740Z,76.84
2022-09-07T03:05:52.381Z,76.54
2022-09-07T03:07:16.292Z,77.16
2022-09-07T03:08:17.823Z,76.97
2022-09-07T03:09:23.692Z,77.19
2022-09-07T03:10:26.784Z,77.09
2022-09-07T03:11:29.600Z,77.09
2022-09-07T03:12:44.816Z,76.56
2022-09-07T03:13:46.463Z,76.88
2022-09-07T03:14:48.136Z,76.91
2022-09-07T03:15:55.018Z,77.65
2022-09-07T03:16:57.532Z,77.54
2022-09-07T03:17:59.152Z,77.75
2022-09-07T03:19:00.736Z,77.40
2022-09-07T03:20:02.507Z,77.35
2022-09-07T03:21:04.224Z,77.72
2022-09-07T03:22:06.312Z,77.02
2022-09-07T03:23:07.918Z,77.09
2022-09-07T03:24:09.799Z,76.55
2022-09-07T03:25:11.837Z,76.50
2022-09-07T03:26:24.965Z,76.49
2022-09-07T03:27:26.611Z,76.31
2022-09-07T03:28:28.315Z,76.42
2022-09-07T03:29:29.993Z,76.69
2022-09-07T03:30:31.836Z,76.38
2022-09-07T03:31:34.284Z,76.44
2022-09-07T03:32:37.444Z,76.48
2022-09-07T03:33:39.237Z,76.18
2022-09-07T03:34:40.875Z,76.21
2022-09-07T03:35:49.698Z,76.53
2022-09-07T03:36:51.347Z,76.95
2022-09-07T03:37:53.006Z,77.22
2022-09-07T03:38:55.335Z,77.00
2022-09-07T03:39:57.252Z,77.67
2022-09-07T03:41:00.497Z,77.89
2022-09-07T03:42:02.252Z,78.05
2022-09-07T03:43:04.106Z,77.83
2022-09-07T03:44:07.645Z,77.92
2022-09-07T03:45:10.567Z,78.42
2022-09-07T03:46:12.343Z,78.32
2022-09-07T03:47:14.036Z,77.73
2022-09-07T03:48:15.771Z,77.66
2022-09-07T03:49:17.475Z,77.34
2022-09-07T03:50:19.103Z,77.44
2022-09-07T03:51:20.708Z,77.71
2022-09-07T03:52:22.420Z,78.35
2022-09-07T03:53:24.081Z,78.47
2022-09-07T03:54:25.835Z,78.94
2022-09-07T03:55:27.441Z,80.35
2022-09-07T03:56:29.071Z,81.17
2022-09-07T03:57:31.032Z,81.49
2022-09-07T03:58:34.184Z,81.25
2022-09-07T03:59:35.826Z,81.01
2022-09-07T04:00:41.043Z,80.73
2022-09-07T04:01:42.882Z,81.12
2022-09-07T04:02:44.660Z,80.52
2022-09-07T04:03:48.085Z,80.42
2022-09-07T04:04:49.822Z,80.48
2022-09-07T04:05:51.464Z,80.47
2022-09-07T04:06:53.380Z,80.27
2022-09-07T04:07:55.022Z,80.40
2022-09-07T04:08:56.690Z,80.45
2022-09-07T04:09:58.275Z,80.16
2022-09-07T04:11:01.677Z,81.16
2022-09-07T04:12:03.815Z,81.09
2022-09-07T04:13:06.148Z,80.60
2022-09-07T04:14:09.095Z,80.69
2022-09-07T04:15:11.041Z,80.88
2022-09-07T04:16:14.383Z,80.75
2022-09-07T04:17:16.061Z,80.27
2022-09-07T04:18:17.953Z,79.63
2022-09-07T04:19:19.583Z,79.04
2022-09-07T04:20:21.205Z,79.00
2022-09-07T04:21:23.909Z,78.90
2022-09-07T04:22:25.543Z,78.75
2022-09-07T04:23:27.261Z,79.11
2022-09-07T04:24:28.861Z,79.51
2022-09-07T04:25:30.490Z,79.72
2022-09-07T04:26:34.220Z,79.88
2022-09-07T04:27:35.813Z,80.11
2022-09-07T04:28:37.430Z,80.42
2022-09-07T04:29:39.035Z,80.10
2022-09-07T04:30:40.664Z,79.86
2022-09-07T04:31:42.268Z,79.92
2022-09-07T04:32:46.459Z,79.42
2022-09-07T04:33:49.792Z,79.57
2022-09-07T04:34:53.918Z,79.74
2022-09-07T04:35:55.637Z,79.74
2022-09-07T04:36:57.276Z,79.72
2022-09-07T04:37:58.925Z,79.65
2022-09-07T04:39:03.237Z,79.04
2022-09-07T04:40:05.583Z,78.79
2022-09-07T04:41:15.502Z,78.16
2022-09-07T04:42:17.286Z,78.03
2022-09-07T04:43:19.433Z,77.90
2022-09-07T04:44:21.079Z,77.02
2022-09-07T04:45:22.938Z,76.83
2022-09-07T04:46:26.687Z,76.79
2022-09-07T04:47:30.888Z,75.75
2022-09-07T04:48:32.790Z,75.14
2022-09-07T04:49:35.117Z,75.11
2022-09-07T04:50:36.733Z,74.89
2022-09-07T04:51:39.524Z,74.20
2022-09-07T04:52:41.131Z,74.25
2022-09-07T04:53:42.814Z,74.92
2022-09-07T04:54:44.907Z,75.17
2022-09-07T04:55:46.610Z,75.27
2022-09-07T04:56:48.199Z,75.16
2022-09-07T04:57:50.446Z,75.31
2022-09-07T04:58:53.012Z,74.98
2022-09-07T04:59:55.141Z,74.94
2022-09-07T05:01:01.987Z,74.57
2022-09-07T05:02:03.987Z,74.70
2022-09-07T05:03:06.369Z,74.50
2022-09-07T05:04:08.022Z,74.52
2022-09-07T05:05:09.797Z,74.50
2022-09-07T05:06:12.203Z,74.61
2022-09-07T05:07:13.792Z,74.47
2022-09-07T05:08:15.369Z,74.91
2022-09-07T05:09:16.969Z,74.64
2022-09-07T05:10:18.635Z,74.99
2022-09-07T05:11:27.722Z,75.31
2022-09-07T05:12:30.808Z,74.40
2022-09-07T05:13:32.875Z,74.16
2022-09-07T05:14:34.982Z,74.07
2022-09-07T05:15:36.600Z,74.01
2022-09-07T05:16:38.286Z,73.97
2022-09-07T05:17:39.908Z,74.08
2022-09-07T05:18:41.952Z,73.80
2022-09-07T05:19:43.542Z,73.72
2022-09-07T05:20:45.137Z,73.60
2022-09-07T05:21:46.760Z,73.55
2022-09-07T05:22:48.542Z,73.11
2022-09-07T05:23:52.592Z,73.30
2022-09-07T05:24:54.231Z,72.79
2022-09-07T05:25:55.829Z,72.37
2022-09-07T05:26:59.625Z,78.03
2022-09-07T05:28:01.399Z,79.49
2022-09-07T05:31:49.053Z,71.62
2022-09-07T05:32:51.743Z,69.86
2022-09-07T05:35:17.397Z,69.38
2022-09-07T05:36:20.624Z,68.31
2022-09-07T05:37:22.255Z,66.92
2022-09-07T05:38:25.719Z,63.08
2022-09-07T05:39:28.240Z,62.95
2022-09-07T05:40:37.229Z,63.10
2022-09-07T05:41:41.717Z,62.63
2022-09-07T05:42:43.909Z,63.04
2022-09-07T05:45:08.489Z,63.31
2022-09-07T05:46:11.562Z,63.09
2022-09-07T05:47:13.701Z,63.47
2022-09-07T05:48:15.615Z,63.30
2022-09-07T05:49:17.248Z,62.41
2022-09-07T05:50:18.876Z,61.97
2022-09-07T05:51:20.472Z,61.20
2022-09-07T05:52:22.109Z,61.72
2022-09-07T05:53:23.784Z,61.34
2022-09-07T05:54:25.546Z,61.21
2022-09-07T05:55:30.426Z,60.48
2022-09-07T05:56:36.407Z,61.53
2022-09-07T05:57:38.134Z,60.53
2022-09-07T05:58:40.169Z,61.36
2022-09-07T05:59:41.794Z,60.85
2022-09-07T06:00:44.302Z,60.35
2022-09-07T06:01:45.929Z,60.25
2022-09-07T06:02:48.867Z,60.79
2022-09-07T06:03:50.534Z,60.21
2022-09-07T06:04:52.915Z,60.14
2022-09-07T06:06:19.243Z,59.55
2022-09-07T06:07:22.989Z,58.45
2022-09-07T06:08:25.336Z,57.94
2022-09-07T06:09:30.320Z,57.96
2022-09-07T06:10:44.686Z,57.63
2022-09-07T06:11:46.589Z,57.77
2022-09-07T06:12:49.293Z,57.79
2022-09-07T06:13:52.127Z,57.20
2022-09-07T06:14:53.793Z,57.47
2022-09-07T06:16:00.363Z,56.51
2022-09-07T06:17:02.026Z,56.60
2022-09-07T06:18:03.784Z,55.39
2022-09-07T06:19:07.255Z,54.57
2022-09-07T06:20:09.675Z,54.75
2022-09-07T06:21:13.920Z,55.48
2022-09-07T06:22:15.542Z,54.93
2022-09-07T06:23:17.708Z,55.14
2022-09-07T06:24:19.335Z,54.65
2022-09-07T06:25:22.989Z,54.81
2022-09-07T06:26:24.764Z,53.94
2022-09-07T06:27:26.497Z,54.59
2022-09-07T06:28:36.032Z,54.13
2022-09-07T06:29:37.693Z,54.42
2022-09-07T06:30:39.387Z,54.75
2022-09-07T06:33:02.576Z,54.42
2022-09-07T06:34:04.164Z,54.00
2022-09-07T06:35:05.991Z,53.85
2022-09-07T06:36:13.898Z,53.89
2022-09-07T06:37:16.770Z,53.35
2022-09-07T06:38:18.650Z,53.91
2022-09-07T06:39:20.270Z,53.27
2022-09-07T06:40:22.855Z,53.65
2022-09-07T06:42:50.139Z,53.43
2022-09-07T06:43:53.586Z,52.40
2022-09-07T06:44:55.473Z,52.89
2022-09-07T06:47:20.054Z,54.07
2022-09-07T06:48:21.751Z,54.82
2022-09-07T06:49:25.166Z,54.82
2022-09-07T06:50:27.853Z,56.66
2022-09-07T06:51:29.737Z,56.50
2022-09-07T06:55:18.310Z,55.99
2022-09-07T06:56:20.280Z,55.83
2022-09-07T06:57:21.881Z,56.27
2022-09-07T06:58:27.162Z,56.59
2022-09-07T06:59:28.733Z,56.48
2022-09-07T07:00:30.427Z,55.25
2022-09-07T07:01:33.748Z,54.55
2022-09-07T07:02:35.531Z,53.90
2022-09-07T07:03:38.091Z,55.21
2022-09-07T07:04:41.058Z,55.47
2022-09-07T07:05:50.222Z,54.35
2022-09-07T07:06:51.972Z,54.32
2022-09-07T07:07:53.574Z,53.10
2022-09-07T07:08:55.232Z,53.41
2022-09-07T07:09:56.871Z,52.96
2022-09-07T07:11:11.899Z,53.38
2022-09-07T07:12:13.490Z,55.75
2022-09-07T07:14:16.942Z,55.31
2022-09-07T07:15:19.167Z,53.51
2022-09-07T07:16:20.907Z,53.84
2022-09-07T07:17:22.624Z,53.64
2022-09-07T07:18:24.260Z,52.53
2022-09-07T07:19:25.915Z,52.53
2022-09-07T07:20:28.266Z,53.21
2022-09-07T07:21:42.911Z,53.58
2022-09-07T07:22:52.382Z,52.67
2022-09-07T07:23:54.305Z,52.44
2022-09-07T07:24:56.021Z,52.46
2022-09-07T07:26:27.131Z,51.26
2022-09-07T07:27:31.500Z,50.53
2022-09-07T07:29:55.284Z,50.91
2022-09-07T07:30:58.712Z,50.63
2022-09-07T07:32:01.141Z,50.34
2022-09-07T07:33:04.689Z,50.73
2022-09-07T07:34:06.440Z,50.22
2022-09-07T07:35:08.863Z,51.52
2022-09-07T07:36:19.644Z,50.37
2022-09-07T07:37:27.307Z,51.09
2022-09-07T07:42:39.854Z,52.59
2022-09-07T07:43:41.695Z,52.25
2022-09-07T07:44:43.282Z,51.98
2022-09-07T07:46:03.960Z,52.04
2022-09-07T07:47:06.857Z,52.50
2022-09-07T07:48:12.110Z,52.17
2022-09-07T07:49:13.719Z,51.80
2022-09-07T07:50:31.846Z,52.08
2022-09-07T07:52:49.836Z,51.66
2022-09-07T07:54:17.536Z,50.01
2022-09-07T07:56:40.670Z,48.61
2022-09-07T07:57:42.272Z,48.53
2022-09-07T07:58:46.702Z,48.25
2022-09-07T07:59:48.272Z,49.80
2022-09-07T08:00:57.472Z,49.55
2022-09-07T08:02:04.612Z,49.61
2022-09-07T08:03:06.739Z,49.43
2022-09-07T08:04:08.282Z,49.31
2022-09-07T08:05:09.872Z,49.01
2022-09-07T08:06:17.283Z,49.28
2022-09-07T08:07:19.560Z,49.76
2022-09-07T08:08:23.053Z,49.15
2022-09-07T08:09:24.676Z,49.19
2022-09-07T08:10:28.741Z,49.22
2022-09-07T08:11:31.216Z,48.99
2022-09-07T08:12:33.153Z,49.24
2022-09-07T08:13:40.460Z,48.59
2022-09-07T08:14:42.466Z,47.77
2022-09-07T08:15:46.817Z,47.47
2022-09-07T08:16:48.589Z,46.70
2022-09-07T08:17:50.332Z,46.09
2022-09-07T08:18:53.614Z,45.86
2022-09-07T08:19:55.842Z,46.02
2022-09-07T08:21:05.109Z,45.74
2022-09-07T08:22:07.889Z,46.32
2022-09-07T08:23:09.665Z,45.31
2022-09-07T08:24:11.873Z,44.95
2022-09-07T08:25:13.531Z,45.34
2022-09-07T08:26:16.041Z,46.10
2022-09-07T08:27:20.537Z,45.71
2022-09-07T08:28:23.637Z,46.45
2022-09-07T08:29:25.431Z,46.55
2022-09-07T08:30:27.041Z,47.33
2022-09-07T08:31:28.673Z,47.79
2022-09-07T08:32:30.200Z,47.62
2022-09-07T08:33:31.982Z,48.37
2022-09-07T08:34:35.628Z,48.38
2022-09-07T08:35:37.144Z,49.22
2022-09-07T08:36:38.666Z,48.68
2022-09-07T08:37:40.194Z,49.60
2022-09-07T08:38:43.378Z,49.86
2022-09-07T08:39:45.002Z,48.77
2022-09-07T08:40:47.017Z,48.46
2022-09-07T08:42:03.637Z,48.76
2022-09-07T08:43:40.281Z,48.62
2022-09-07T08:44:51.042Z,48.22
2022-09-07T08:45:59.254Z,47.83
2022-09-07T08:47:28.665Z,48.15
2022-09-07T08:48:34.382Z,48.40
2022-09-07T08:49:57.423Z,49.02
2022-09-07T08:51:19.121Z,47.45
2022-09-07T08:52:32.848Z,47.86
2022-09-07T08:53:45.824Z,47.20
2022-09-07T08:54:59.436Z,47.49
2022-09-07T08:56:06.432Z,47.36
2022-09-07T08:57:24.694Z,47.10
2022-09-07T08:58:48.769Z,47.66
2022-09-07T09:00:16.974Z,49.12
2022-09-07T09:01:37.055Z,48.55
2022-09-07T09:02:44.048Z,49.57
2022-09-07T09:05:29.266Z,49.66
2022-09-07T09:06:58.827Z,49.55
2022-09-07T09:08:29.372Z,49.00
2022-09-07T09:09:59.132Z,48.00
2022-09-07T09:11:01.563Z,47.47
2022-09-07T09:12:03.033Z,47.80
2022-09-07T09:13:16.982Z,47.66
2022-09-07T09:14:36.387Z,47.06
2022-09-07T09:15:52.050Z,46.81
2022-09-07T09:17:17.925Z,47.48
2022-09-07T09:18:28.592Z,47.52
2022-09-07T09:19:45.294Z,47.57
2022-09-07T09:20:50.691Z,47.71
2022-09-07T09:22:15.738Z,47.30
2022-09-07T09:23:19.683Z,48.18
2022-09-07T09:24:30.767Z,48.41
2022-09-07T09:25:34.632Z,49.63
2022-09-07T09:26:36.872Z,49.73
2022-09-07T09:27:38.433Z,49.48
2022-09-07T09:28:40.221Z,47.98
2022-09-07T09:29:42.043Z,48.50
2022-09-07T09:30:43.601Z,48.94
2022-09-07T09:31:45.305Z,49.34
2022-09-07T09:32:49.742Z,47.37
2022-09-07T09:34:20.377Z,47.73
2022-09-07T09:35:28.595Z,48.54
2022-09-07T09:36:34.417Z,48.85
2022-09-07T09:37:38.024Z,47.44
2022-09-07T09:38:40.774Z,47.57
2022-09-07T09:39:44.449Z,46.32
2022-09-07T09:40:52.981Z,46.92
2022-09-07T09:41:56.456Z,46.41
2022-09-07T09:43:19.875Z,46.16
2022-09-07T09:44:22.875Z,46.18
2022-09-07T09:45:27.281Z,46.84
2022-09-07T09:46:37.665Z,47.20
2022-09-07T09:47:39.604Z,47.54
2022-09-07T09:48:42.108Z,46.86
2022-09-07T09:49:45.446Z,46.91
2022-09-07T09:52:43.368Z,47.08
2022-09-07T09:53:56.341Z,48.37
2022-09-07T09:55:17.257Z,47.85
2022-09-07T09:56:19.732Z,48.82
2022-09-07T10:04:58.916Z,46.77
2022-09-07T10:06:04.113Z,45.86
2022-09-07T10:07:25.870Z,47.15
2022-09-07T10:08:29.736Z,46.55
2022-09-07T10:09:38.216Z,45.54
2022-09-07T10:10:50.330Z,45.70
2022-09-07T10:12:05.394Z,45.04
2022-09-07T10:13:32.875Z,44.48
2022-09-07T10:14:37.176Z,45.56
2022-09-07T10:15:41.132Z,47.48
2022-09-07T10:16:44.290Z,46.66
2022-09-07T10:17:49.815Z,45.75
2022-09-07T10:18:57.670Z,46.06
2022-09-07T10:20:02.120Z,45.97
2022-09-07T10:21:13.987Z,47.09
2022-09-07T10:22:25.244Z,46.45
2022-09-07T10:23:27.811Z,47.28
2022-09-07T10:24:39.473Z,47.26
2022-09-07T10:25:45.307Z,46.71
2022-09-07T10:26:48.666Z,46.85
2022-09-07T10:28:02.364Z,46.98
2022-09-07T10:29:36.414Z,48.22
2022-09-07T10:31:08.070Z,47.24
2022-09-07T10:32:24.931Z,46.89
2022-09-07T10:35:34.985Z,46.38
2022-09-07T10:36:39.121Z,46.83
2022-09-07T10:37:46.717Z,47.68
2022-09-07T10:39:00.025Z,46.38
2022-09-07T10:40:21.938Z,46.55
2022-09-07T10:41:37.186Z,46.20
2022-09-07T10:44:32.086Z,45.54
2022-09-07T10:47:46.802Z,45.65
2022-09-07T10:49:03.028Z,45.66
2022-09-07T10:50:25.297Z,47.34
2022-09-07T10:51:35.859Z,45.82
2022-09-07T10:52:55.829Z,45.55
2022-09-07T10:54:31.617Z,44.94
2022-09-07T10:55:37.815Z,46.29
2022-09-07T10:56:52.533Z,45.63
2022-09-07T11:00:11.731Z,44.13
2022-09-07T11:01:32.240Z,45.03
2022-09-07T11:02:37.165Z,44.51
2022-09-07T11:04:03.536Z,43.85
2022-09-07T11:05:17.354Z,44.48
2022-09-07T11:06:41.458Z,43.15
2022-09-07T11:08:00.688Z,43.92
2022-09-07T11:09:19.783Z,40.98
2022-09-07T11:10:30.579Z,40.92
2022-09-07T11:12:05.101Z,39.45
2022-09-07T11:13:12.868Z,40.79
2022-09-07T11:14:22.093Z,40.45
2022-09-07T11:15:30.699Z,41.31
2022-09-07T11:16:55.211Z,42.32
2022-09-07T11:18:06.050Z,43.21
2022-09-07T11:20:39.592Z,41.55
2022-09-07T11:21:59.953Z,41.14
2022-09-07T11:23:32.167Z,42.43
2022-09-07T11:24:41.719Z,41.93
2022-09-07T11:25:54.085Z,42.03
2022-09-07T11:27:00.791Z,42.60
2022-09-07T11:28:13.011Z,42.05
2022-09-07T11:29:38.491Z,40.90
2022-09-07T11:30:47.994Z,40.78
2022-09-07T11:31:54.359Z,41.25
2022-09-07T11:33:04.989Z,40.49
2022-09-07T11:34:24.105Z,40.62
2022-09-07T11:35:39.950Z,40.02
2022-09-07T11:36:51.789Z,38.86
2022-09-07T11:37:59.581Z,39.76
2022-09-07T11:39:11.092Z,39.47
2022-09-07T11:40:33.900Z,39.12
2022-09-07T11:41:49.169Z,40.42
2022-09-07T11:43:17.729Z,40.56
2022-09-07T11:44:29.417Z,40.01
2022-09-07T11:45:35.325Z,39.54
2022-09-07T11:46:53.523Z,39.37
2022-09-07T11:48:05.001Z,39.62
2022-09-07T11:49:15.120Z,38.81
2022-09-07T11:50:19.415Z,41.27
2022-09-07T11:51:39.659Z,40.00
2022-09-07T11:52:53.579Z,39.61
2022-09-07T11:54:00.798Z,39.84
2022-09-07T11:55:08.392Z,40.45
2022-09-07T11:56:19.799Z,40.99
2022-09-07T11:57:56.286Z,40.59
2022-09-07T11:59:15.978Z,40.23
2022-09-07T12:00:42.198Z,39.79
2022-09-07T12:02:32.204Z,40.19
2022-09-07T12:04:00.954Z,40.46
2022-09-07T12:05:17.881Z,40.42
2022-09-07T12:06:25.614Z,40.31
2022-09-07T12:07:45.134Z,39.59
2022-09-07T12:09:11.957Z,39.25
2022-09-07T12:10:32.198Z,38.39
2022-09-07T12:12:02.876Z,40.67
2022-09-07T12:13:29.142Z,40.31
2022-09-07T12:14:49.366Z,40.72
2022-09-07T12:16:28.663Z,40.07
2022-09-07T12:17:53.500Z,40.98
2022-09-07T12:19:09.255Z,39.93
2022-09-07T12:20:15.263Z,40.32
2022-09-07T12:21:44.910Z,39.09
2022-09-07T12:23:16.823Z,38.82
2022-09-07T12:24:44.223Z,39.17
2022-09-07T12:25:52.877Z,39.18
2022-09-07T12:26:55.683Z,39.41
2022-09-07T12:27:58.025Z,39.63
2022-09-07T12:28:59.549Z,39.90
2022-09-07T12:30:04.130Z,39.17
2022-09-07T12:31:10.987Z,38.49
2022-09-07T12:33:37.819Z,38.95
2022-09-07T12:34:50.935Z,39.52
2022-09-07T12:35:54.869Z,39.91
2022-09-07T12:37:00.438Z,41.03
2022-09-07T12:38:30.485Z,39.97
2022-09-07T12:39:33.107Z,38.34
2022-09-07T12:40:34.687Z,38.63
2022-09-07T12:42:31.925Z,38.12
2022-09-07T12:43:14.160Z,37.88
2022-09-07T12:44:18.679Z,38.93
2022-09-07T12:45:29.332Z,39.24
2022-09-07T12:46:34.694Z,39.37
2022-09-07T12:47:36.907Z,39.91
2022-09-07T12:49:22.277Z,38.16
2022-09-07T12:50:39.115Z,36.83
2022-09-07T12:53:12.835Z,38.27
2022-09-07T12:54:34.934Z,37.97
2022-09-07T12:57:34.094Z,38.06
2022-09-07T12:58:46.278Z,38.49
2022-09-07T13:00:02.989Z,37.33
2022-09-07T13:01:07.553Z,36.84
2022-09-07T13:02:27.342Z,36.36
2022-09-07T13:03:56.709Z,36.64
2022-09-07T13:05:13.696Z,36.90
2022-09-07T13:08:20.887Z,35.75
2022-09-07T13:09:22.343Z,36.35
2022-09-07T13:10:26.596Z,37.41
2022-09-07T13:11:38.135Z,36.21
2022-09-07T13:13:14.623Z,36.90
2022-09-07T13:14:16.582Z,36.14
2022-09-07T13:15:43.357Z,34.92
2022-09-07T13:18:28.622Z,33.93
2022-09-07T13:19:52.287Z,33.66
2022-09-07T13:21:08.757Z,33.14
2022-09-07T13:22:29.215Z,32.48
2022-09-07T13:23:31.440Z,32.53
2022-09-07T13:24:53.075Z,32.65
2022-09-07T13:25:56.624Z,32.93
2022-09-07T13:27:24.902Z,33.58
2022-09-07T13:28:29.526Z,33.03
2022-09-07T13:29:38.537Z,33.45
2022-09-07T13:31:04.931Z,33.03
2022-09-07T13:33:08.051Z,33.24
2022-09-07T13:33:48.294Z,33.04
2022-09-07T13:35:02.017Z,33.76
2022-09-07T13:36:05.394Z,34.20
2022-09-07T13:37:24.099Z,33.87
2022-09-07T13:38:26.926Z,34.68
2022-09-07T13:39:32.470Z,35.06
2022-09-07T13:40:39.177Z,34.47
2022-09-07T13:41:51.270Z,35.32
2022-09-07T13:42:55.292Z,34.70
2022-09-07T13:44:02.872Z,35.21
2022-09-07T13:45:07.867Z,34.72
2022-09-07T13:46:47.631Z,33.91
2022-09-07T13:48:19.112Z,34.35
2022-09-07T13:49:56.082Z,34.50
2022-09-07T13:51:23.436Z,34.63
2022-09-07T13:52:31.437Z,35.02
2022-09-07T13:53:38.914Z,34.63
2022-09-07T13:54:52.367Z,34.86
2022-09-07T13:56:16.580Z,35.12
2022-09-07T13:57:26.455Z,34.96
2022-09-07T13:58:37.769Z,35.18
2022-09-07T13:59:41.779Z,34.89
2022-09-07T14:00:54.333Z,34.47
2022-09-07T14:01:57.132Z,34.37
2022-09-07T14:03:06.295Z,33.91
2022-09-07T14:04:22.747Z,33.35
2022-09-07T14:05:24.456Z,33.60
2022-09-07T14:06:31.940Z,33.35
2022-09-07T14:07:33.617Z,33.77
2022-09-07T14:08:39.658Z,34.73
2022-09-07T14:09:41.840Z,35.59
2022-09-07T14:10:48.689Z,35.65
2022-09-07T14:11:52.794Z,35.10
2022-09-07T14:13:03.547Z,35.89
2022-09-07T14:14:09.150Z,36.75
2022-09-07T14:15:18.114Z,36.68
2022-09-07T14:16:19.688Z,35.88
2022-09-07T14:17:21.318Z,35.84
2022-09-07T14:18:30.372Z,34.93
2022-09-07T14:19:40.722Z,35.58
2022-09-07T14:20:51.678Z,35.55
2022-09-07T14:22:01.468Z,35.33
2022-09-07T14:23:03.215Z,35.72
2022-09-07T14:24:23.969Z,35.48
2022-09-07T14:25:26.439Z,35.19
2022-09-07T14:26:29.250Z,35.69
2022-09-07T14:27:39.505Z,34.62
2022-09-07T14:28:41.442Z,34.39
2022-09-07T14:29:42.974Z,34.94
2022-09-07T14:30:44.909Z,34.83
2022-09-07T14:31:46.730Z,34.78
2022-09-07T14:32:52.488Z,35.09
2022-09-07T14:33:59.167Z,35.45
2022-09-07T14:35:02.551Z,35.21
2022-09-07T14:36:23.255Z,35.10
2022-09-07T14:37:26.941Z,35.47
2022-09-07T14:39:54.177Z,36.15
2022-09-07T14:41:01.785Z,36.42
2022-09-07T14:42:04.265Z,35.52
2022-09-07T14:43:33.631Z,35.70
2022-09-07T14:44:42.901Z,35.58
2022-09-07T14:45:44.553Z,36.29
2022-09-07T14:46:50.580Z,35.68
2022-09-07T14:47:56.383Z,35.35
2022-09-07T14:49:01.748Z,34.90
2022-09-07T14:50:06.999Z,34.83
2022-09-07T14:51:29.870Z,34.71
2022-09-07T14:52:42.443Z,34.67
2022-09-07T14:53:50.375Z,35.17
2022-09-07T14:54:52.823Z,35.65
2022-09-07T14:56:02.270Z,35.47
2022-09-07T14:57:30.405Z,36.51
2022-09-07T14:58:32.568Z,37.50
2022-09-07T14:59:42.893Z,37.18
2022-09-07T15:02:27.327Z,36.78
2022-09-07T15:03:31.947Z,37.47
2022-09-07T15:04:34.236Z,37.08
2022-09-07T15:05:47.391Z,36.52
2022-09-07T15:07:04.303Z,35.77
2022-09-07T15:08:06.737Z,36.10
2022-09-07T15:09:37.985Z,36.56
2022-09-07T15:10:41.213Z,36.55
2022-09-07T15:11:43.240Z,37.20
2022-09-07T15:12:44.861Z,36.96
2022-09-07T15:13:55.317Z,36.94
2022-09-07T15:14:56.863Z,36.50
2022-09-07T15:16:02.268Z,36.36
2022-09-07T15:18:47.195Z,37.19
2022-09-07T15:19:50.409Z,37.46
2022-09-07T15:20:52.862Z,36.56
2022-09-07T15:21:55.945Z,37.50
2022-09-07T15:22:58.068Z,37.12
2022-09-07T15:24:01.066Z,37.73
2022-09-07T15:25:02.788Z,38.03
2022-09-07T15:26:05.038Z,38.25
2022-09-07T15:27:19.677Z,37.75
2022-09-07T15:29:50.733Z,37.16
2022-09-07T15:31:40.385Z,37.37
2022-09-07T15:32:16.675Z,37.23
2022-09-07T15:33:19.422Z,37.08
2022-09-07T15:34:21.250Z,36.80
2022-09-07T15:35:22.813Z,36.92
2022-09-07T15:36:24.434Z,36.04